createdAt,value
2017-08-31T00:00:48.821Z,51.71
2017-08-31T00:01:50.714Z,51.61
2017-08-31T00:02:52.598Z,51.61
2017-08-31T00:03:54.422Z,51.49
2017-08-31T00:04:56.244Z,51.59
2017-08-31T00:05:58.128Z,52.07
2017-08-31T00:07:00.013Z,51.68
2017-08-31T00:08:01.897Z,51.78
2017-08-31T00:09:16.066Z,52.36
2017-08-31T00:10:17.951Z,52.75
2017-08-31T00:11:19.838Z,52.65
2017-08-31T00:12:21.724Z,53.20
2017-08-31T00:13:23.548Z,53.97
2017-08-31T00:14:25.371Z,53.49
2017-08-31T00:15:27.268Z,54.17
2017-08-31T00:16:29.153Z,54.07
2017-08-31T00:17:31.041Z,53.97
2017-08-31T00:18:45.197Z,53.97
2017-08-31T00:19:47.079Z,53.69
2017-08-31T00:20:48.962Z,54.27
2017-08-31T00:21:50.845Z,53.97
2017-08-31T00:22:52.668Z,54.07
2017-08-31T00:23:54.493Z,54.27
2017-08-31T00:24:56.379Z,54.27
2017-08-31T00:25:58.266Z,54.36
2017-08-31T00:27:00.152Z,54.07
2017-08-31T00:28:14.312Z,54.17
2017-08-31T00:29:16.199Z,53.69
2017-08-31T00:30:18.087Z,53.78
2017-08-31T00:31:19.964Z,53.81
2017-08-31T00:32:21.789Z,53.61
2017-08-31T00:33:23.611Z,53.91
2017-08-31T00:34:25.498Z,53.91
2017-08-31T00:35:27.393Z,53.91
2017-08-31T00:36:29.269Z,53.71
2017-08-31T00:37:43.424Z,53.91
2017-08-31T00:38:45.309Z,53.59
2017-08-31T00:39:47.201Z,53.69
2017-08-31T00:40:49.084Z,53.71
2017-08-31T00:41:50.906Z,53.49
2017-08-31T00:42:52.729Z,54.29
2017-08-31T00:43:54.621Z,54.39
2017-08-31T00:44:56.507Z,54.07
2017-08-31T00:45:58.393Z,54.17
2017-08-31T00:47:12.551Z,54.27
2017-08-31T00:48:14.435Z,53.97
2017-08-31T00:49:16.323Z,54.17
2017-08-31T00:50:18.208Z,53.91
2017-08-31T00:51:20.032Z,54.19
2017-08-31T00:52:21.854Z,54.39
2017-08-31T00:53:23.742Z,54.39
2017-08-31T00:54:25.627Z,54.07
2017-08-31T00:55:27.512Z,53.78
2017-08-31T00:56:41.668Z,54.36
2017-08-31T00:57:43.555Z,54.07
2017-08-31T00:58:45.444Z,54.46
2017-08-31T00:59:47.324Z,54.36
2017-08-31T01:00:49.152Z,54.55
2017-08-31T01:01:50.972Z,54.65
2017-08-31T01:02:52.859Z,54.94
2017-08-31T01:03:54.756Z,54.75
2017-08-31T01:04:56.641Z,54.46
2017-08-31T01:06:10.801Z,54.27
2017-08-31T01:07:12.687Z,53.97
2017-08-31T01:08:14.590Z,53.88
2017-08-31T01:09:16.464Z,53.97
2017-08-31T01:10:18.297Z,54.17
2017-08-31T01:11:20.123Z,54.36
2017-08-31T01:12:22.017Z,54.65
2017-08-31T01:13:23.913Z,54.36
2017-08-31T01:14:25.799Z,53.91
2017-08-31T01:15:39.955Z,54.46
2017-08-31T01:16:41.842Z,54.07
2017-08-31T01:17:43.728Z,54.17
2017-08-31T01:18:45.612Z,54.17
2017-08-31T01:19:47.437Z,54.46
2017-08-31T01:20:49.257Z,54.36
2017-08-31T01:21:51.144Z,54.19
2017-08-31T01:22:53.031Z,54.29
2017-08-31T01:23:54.915Z,53.52
2017-08-31T01:25:09.081Z,53.91
2017-08-31T01:26:10.975Z,53.33
2017-08-31T01:27:12.861Z,53.33
2017-08-31T01:28:14.743Z,53.81
2017-08-31T01:29:16.574Z,53.97
2017-08-31T01:30:18.395Z,54.17
2017-08-31T01:31:20.285Z,54.36
2017-08-31T01:32:22.166Z,53.59
2017-08-31T01:33:24.059Z,53.59
2017-08-31T01:34:38.215Z,53.52
2017-08-31T01:35:40.097Z,53.91
2017-08-31T01:36:41.991Z,53.33
2017-08-31T01:37:43.876Z,53.52
2017-08-31T01:38:45.707Z,53.52
2017-08-31T01:39:47.533Z,53.42
2017-08-31T01:40:49.413Z,53.61
2017-08-31T01:41:51.304Z,54.00
2017-08-31T01:42:53.197Z,53.52
2017-08-31T01:44:07.354Z,54.10
2017-08-31T01:45:09.246Z,53.52
2017-08-31T01:46:11.131Z,54.10
2017-08-31T01:47:13.026Z,53.23
2017-08-31T01:48:14.845Z,53.23
2017-08-31T01:49:16.670Z,53.23
2017-08-31T01:50:18.551Z,53.33
2017-08-31T01:51:20.431Z,53.81
2017-08-31T01:52:22.311Z,53.71
2017-08-31T01:53:36.468Z,53.45
2017-08-31T01:54:38.361Z,53.42
2017-08-31T01:55:40.249Z,53.03
2017-08-31T01:56:42.130Z,52.84
2017-08-31T01:57:43.964Z,52.84
2017-08-31T01:58:45.786Z,52.84
2017-08-31T01:59:47.669Z,52.29
2017-08-31T02:00:49.551Z,52.09
2017-08-31T02:01:51.446Z,52.09
2017-08-31T02:03:05.602Z,52.39
2017-08-31T02:04:07.494Z,52.48
2017-08-31T02:05:09.381Z,53.06
2017-08-31T02:06:11.264Z,52.77
2017-08-31T02:07:13.082Z,52.77
2017-08-31T02:08:14.914Z,52.58
2017-08-31T02:09:16.800Z,52.39
2017-08-31T02:10:18.681Z,52.09
2017-08-31T02:11:20.563Z,52.48
2017-08-31T02:12:34.718Z,51.90
2017-08-31T02:13:36.600Z,51.81
2017-08-31T02:14:38.479Z,52.09
2017-08-31T02:15:40.361Z,52.67
2017-08-31T02:16:42.194Z,52.87
2017-08-31T02:17:44.017Z,52.65
2017-08-31T02:18:45.900Z,52.84
2017-08-31T02:19:47.792Z,52.77
2017-08-31T02:20:49.671Z,52.84
2017-08-31T02:22:03.829Z,53.42
2017-08-31T02:23:05.714Z,53.61
2017-08-31T02:24:07.607Z,54.19
2017-08-31T02:25:09.491Z,54.39
2017-08-31T02:26:11.328Z,54.97
2017-08-31T02:27:13.144Z,55.16
2017-08-31T02:28:15.028Z,55.45
2017-08-31T02:29:16.908Z,55.55
2017-08-31T02:30:18.790Z,55.65
2017-08-31T02:31:32.994Z,55.26
2017-08-31T02:32:34.879Z,55.07
2017-08-31T02:33:36.766Z,55.35
2017-08-31T02:34:38.653Z,55.16
2017-08-31T02:35:40.485Z,55.45
2017-08-31T02:36:42.322Z,54.97
2017-08-31T02:37:44.142Z,55.45
2017-08-31T02:38:46.027Z,55.26
2017-08-31T02:39:47.909Z,55.83
2017-08-31T02:41:02.077Z,55.65
2017-08-31T02:42:03.958Z,56.13
2017-08-31T02:43:05.845Z,55.55
2017-08-31T02:44:07.739Z,55.55
2017-08-31T02:45:09.570Z,55.45
2017-08-31T02:46:11.392Z,55.26
2017-08-31T02:47:13.276Z,55.26
2017-08-31T02:48:15.158Z,55.26
2017-08-31T02:49:17.042Z,55.35
2017-08-31T02:50:31.213Z,55.16
2017-08-31T02:51:33.093Z,55.07
2017-08-31T02:52:34.975Z,54.13
2017-08-31T02:53:36.855Z,54.61
2017-08-31T02:54:38.674Z,54.32
2017-08-31T02:55:40.507Z,54.03
2017-08-31T02:56:42.388Z,53.93
2017-08-31T02:57:44.271Z,53.25
2017-08-31T02:58:46.153Z,53.77
2017-08-31T03:00:00.308Z,52.89
2017-08-31T03:01:02.201Z,52.97
2017-08-31T03:02:04.095Z,52.77
2017-08-31T03:03:05.977Z,53.25
2017-08-31T03:04:07.808Z,53.64
2017-08-31T03:05:09.628Z,53.35
2017-08-31T03:06:11.511Z,53.55
2017-08-31T03:07:13.395Z,54.13
2017-08-31T03:08:15.286Z,53.74
2017-08-31T03:09:29.442Z,54.32
2017-08-31T03:10:31.333Z,54.00
2017-08-31T03:11:33.226Z,54.97
2017-08-31T03:12:35.109Z,54.68
2017-08-31T03:13:36.931Z,55.16
2017-08-31T03:14:38.753Z,55.26
2017-08-31T03:15:40.641Z,55.45
2017-08-31T03:16:42.517Z,55.45
2017-08-31T03:17:44.401Z,55.35
2017-08-31T03:18:58.557Z,54.97
2017-08-31T03:20:00.440Z,55.45
2017-08-31T03:21:02.335Z,55.35
2017-08-31T03:22:04.231Z,55.26
2017-08-31T03:23:06.065Z,54.97
2017-08-31T03:24:07.886Z,55.16
2017-08-31T03:25:09.766Z,55.35
2017-08-31T03:26:11.647Z,55.65
2017-08-31T03:27:13.532Z,55.65
2017-08-31T03:28:27.700Z,55.74
2017-08-31T03:29:29.584Z,55.93
2017-08-31T03:30:31.472Z,55.65
2017-08-31T03:31:33.354Z,55.16
2017-08-31T03:32:35.175Z,55.45
2017-08-31T03:33:37.002Z,55.35
2017-08-31T03:34:38.879Z,55.35
2017-08-31T03:35:40.760Z,55.16
2017-08-31T03:36:42.640Z,54.39
2017-08-31T03:37:56.796Z,54.03
2017-08-31T03:38:58.678Z,54.41
2017-08-31T03:40:00.561Z,54.13
2017-08-31T03:41:02.444Z,54.32
2017-08-31T03:42:04.268Z,53.83
2017-08-31T03:43:06.088Z,53.83
2017-08-31T03:44:07.980Z,53.55
2017-08-31T03:45:09.862Z,53.55
2017-08-31T03:46:11.745Z,53.55
2017-08-31T03:47:25.949Z,53.93
2017-08-31T03:48:27.830Z,53.55
2017-08-31T03:49:29.714Z,53.55
2017-08-31T03:50:31.600Z,53.74
2017-08-31T03:51:33.421Z,53.55
2017-08-31T03:52:35.243Z,53.83
2017-08-31T03:53:37.128Z,53.93
2017-08-31T03:54:39.011Z,53.93
2017-08-31T03:55:40.886Z,53.93
2017-08-31T03:56:55.042Z,53.93
2017-08-31T03:57:56.924Z,53.93
2017-08-31T03:58:58.810Z,53.93
2017-08-31T04:00:00.692Z,53.55
2017-08-31T04:01:02.516Z,54.03
2017-08-31T04:02:04.336Z,54.32
2017-08-31T04:03:06.217Z,54.03
2017-08-31T04:04:08.111Z,53.93
2017-08-31T04:05:10.006Z,54.39
2017-08-31T04:06:24.163Z,54.68
2017-08-31T04:07:26.046Z,55.16
2017-08-31T04:08:27.935Z,55.16
2017-08-31T04:09:29.819Z,55.26
2017-08-31T04:10:31.642Z,55.07
2017-08-31T04:11:33.462Z,55.26
2017-08-31T04:12:35.346Z,55.16
2017-08-31T04:13:37.232Z,54.97
2017-08-31T04:14:39.142Z,54.97
2017-08-31T04:15:53.278Z,55.16
2017-08-31T04:16:55.162Z,55.55
2017-08-31T04:17:57.046Z,55.45
2017-08-31T04:18:58.945Z,55.93
2017-08-31T04:20:00.768Z,55.45
2017-08-31T04:21:02.591Z,55.74
2017-08-31T04:22:04.479Z,55.45
2017-08-31T04:23:06.361Z,55.65
2017-08-31T04:24:08.255Z,55.83
2017-08-31T04:25:22.412Z,55.93
2017-08-31T04:26:24.294Z,55.93
2017-08-31T04:27:26.176Z,55.45
2017-08-31T04:28:28.069Z,56.03
2017-08-31T04:29:29.894Z,55.83
2017-08-31T04:30:31.728Z,56.20
2017-08-31T04:31:33.614Z,56.00
2017-08-31T04:32:35.497Z,56.20
2017-08-31T04:33:37.393Z,56.48
2017-08-31T04:34:51.548Z,56.77
2017-08-31T04:35:53.450Z,56.58
2017-08-31T04:36:55.331Z,56.68
2017-08-31T04:37:57.218Z,57.35
2017-08-31T04:38:59.042Z,57.06
2017-08-31T04:40:00.866Z,57.64
2017-08-31T04:41:02.752Z,57.57
2017-08-31T04:42:04.636Z,58.42
2017-08-31T04:43:06.522Z,58.15
2017-08-31T04:44:20.682Z,57.48
2017-08-31T04:45:22.564Z,57.57
2017-08-31T04:46:24.644Z,57.48
2017-08-31T04:47:26.531Z,58.25
2017-08-31T04:48:28.368Z,58.25
2017-08-31T04:49:30.190Z,59.02
2017-08-31T04:50:32.106Z,58.06
2017-08-31T04:51:33.964Z,57.19
2017-08-31T04:52:35.851Z,56.51
2017-08-31T04:53:50.011Z,55.67
2017-08-31T04:54:51.897Z,56.15
2017-08-31T04:55:53.786Z,55.57
2017-08-31T04:56:55.674Z,55.38
2017-08-31T04:57:57.502Z,55.57
2017-08-31T04:58:59.328Z,55.96
2017-08-31T05:00:01.215Z,56.05
2017-08-31T05:01:03.102Z,55.96
2017-08-31T05:02:04.992Z,55.38
2017-08-31T05:03:19.154Z,54.99
2017-08-31T05:04:21.041Z,54.99
2017-08-31T05:05:22.931Z,54.32
2017-08-31T05:06:24.825Z,53.96
2017-08-31T05:07:26.644Z,54.05
2017-08-31T05:08:28.469Z,53.47
2017-08-31T05:09:30.363Z,52.99
2017-08-31T05:10:32.260Z,52.89
2017-08-31T05:11:34.157Z,52.89
2017-08-31T05:12:48.319Z,52.99
2017-08-31T05:13:50.209Z,53.47
2017-08-31T05:14:52.094Z,53.28
2017-08-31T05:15:53.983Z,53.57
2017-08-31T05:16:55.817Z,54.05
2017-08-31T05:17:57.653Z,53.77
2017-08-31T05:18:59.540Z,53.77
2017-08-31T05:20:01.437Z,54.25
2017-08-31T05:21:03.323Z,54.35
2017-08-31T05:22:17.483Z,55.02
2017-08-31T05:23:19.370Z,54.73
2017-08-31T05:24:21.256Z,54.63
2017-08-31T05:25:23.153Z,55.19
2017-08-31T05:26:24.978Z,55.21
2017-08-31T05:27:26.814Z,55.19
2017-08-31T05:28:28.702Z,55.19
2017-08-31T05:29:30.592Z,55.38
2017-08-31T05:30:32.479Z,55.02
2017-08-31T05:31:46.638Z,55.29
2017-08-31T05:32:48.524Z,54.90
2017-08-31T05:33:50.422Z,54.99
2017-08-31T05:34:52.307Z,54.99
2017-08-31T05:35:54.144Z,55.38
2017-08-31T05:36:55.971Z,56.13
2017-08-31T05:37:57.856Z,56.03
2017-08-31T05:38:59.746Z,56.13
2017-08-31T05:40:01.632Z,55.35
2017-08-31T05:41:15.841Z,55.09
2017-08-31T05:42:17.729Z,55.19
2017-08-31T05:43:19.618Z,55.47
2017-08-31T05:44:21.505Z,55.29
2017-08-31T05:45:23.341Z,55.19
2017-08-31T05:46:25.167Z,55.47
2017-08-31T05:47:27.072Z,55.29
2017-08-31T05:48:28.955Z,55.19
2017-08-31T05:49:30.842Z,55.38
2017-08-31T05:50:45.003Z,55.19
2017-08-31T05:51:46.902Z,55.47
2017-08-31T05:52:48.788Z,54.80
2017-08-31T05:53:50.676Z,55.21
2017-08-31T05:54:52.511Z,55.11
2017-08-31T05:55:54.335Z,55.02
2017-08-31T05:56:56.222Z,54.73
2017-08-31T05:57:58.117Z,54.53
2017-08-31T05:59:00.008Z,53.96
2017-08-31T06:00:14.165Z,54.44
2017-08-31T06:01:16.055Z,54.35
2017-08-31T06:02:17.940Z,53.96
2017-08-31T06:03:19.829Z,53.77
2017-08-31T06:04:21.664Z,53.99
2017-08-31T06:05:23.504Z,53.50
2017-08-31T06:06:25.387Z,53.79
2017-08-31T06:07:27.276Z,53.21
2017-08-31T06:08:29.164Z,52.53
2017-08-31T06:09:43.327Z,53.02
2017-08-31T06:10:45.215Z,52.53
2017-08-31T06:11:47.105Z,52.44
2017-08-31T06:12:48.994Z,52.14
2017-08-31T06:13:50.821Z,51.66
2017-08-31T06:14:52.647Z,51.86
2017-08-31T06:15:54.536Z,51.66
2017-08-31T06:16:56.427Z,51.66
2017-08-31T06:17:58.311Z,51.68
2017-08-31T06:19:12.484Z,51.78
2017-08-31T06:20:14.363Z,52.08
2017-08-31T06:21:16.262Z,51.20
2017-08-31T06:22:18.153Z,51.20
2017-08-31T06:23:19.992Z,50.72
2017-08-31T06:24:21.820Z,50.52
2017-08-31T06:25:23.709Z,50.72
2017-08-31T06:26:25.597Z,50.52
2017-08-31T06:27:27.485Z,50.72
2017-08-31T06:28:41.657Z,50.55
2017-08-31T06:29:43.542Z,50.35
2017-08-31T06:30:45.441Z,50.35
2017-08-31T06:31:47.341Z,50.14
2017-08-31T06:32:49.180Z,50.16
2017-08-31T06:33:51.009Z,50.16
2017-08-31T06:34:52.899Z,50.16
2017-08-31T06:35:54.783Z,50.07
2017-08-31T06:36:56.679Z,49.97
2017-08-31T06:38:10.843Z,50.07
2017-08-31T06:39:12.734Z,49.68
2017-08-31T06:40:14.618Z,49.58
2017-08-31T06:41:16.507Z,49.29
2017-08-31T06:42:18.336Z,49.29
2017-08-31T06:43:20.164Z,49.41
2017-08-31T06:44:22.053Z,49.32
2017-08-31T06:45:23.940Z,49.12
2017-08-31T06:46:25.831Z,49.12
2017-08-31T06:47:40.042Z,49.02
2017-08-31T06:48:41.932Z,49.32
2017-08-31T06:49:43.823Z,49.22
2017-08-31T06:50:45.716Z,49.02
2017-08-31T06:51:47.560Z,48.64
2017-08-31T06:52:49.387Z,48.74
2017-08-31T06:53:51.289Z,48.95
2017-08-31T06:54:53.178Z,48.64
2017-08-31T06:55:55.077Z,48.47
2017-08-31T06:57:09.248Z,48.85
2017-08-31T06:58:11.136Z,48.66
2017-08-31T06:59:13.028Z,48.85
2017-08-31T07:00:14.918Z,48.57
2017-08-31T07:01:16.758Z,48.66
2017-08-31T07:02:18.591Z,48.95
2017-08-31T07:03:20.476Z,48.76
2017-08-31T07:04:22.368Z,49.05
2017-08-31T07:05:24.258Z,49.05
2017-08-31T07:06:38.421Z,48.66
2017-08-31T07:07:40.310Z,48.57
2017-08-31T07:08:42.209Z,48.76
2017-08-31T07:09:44.099Z,48.66
2017-08-31T07:10:45.926Z,48.66
2017-08-31T07:11:47.757Z,48.76
2017-08-31T07:12:49.646Z,48.85
2017-08-31T07:13:51.536Z,48.76
2017-08-31T07:14:53.433Z,48.74
2017-08-31T07:16:07.596Z,49.22
2017-08-31T07:17:09.486Z,49.32
2017-08-31T07:18:11.404Z,49.63
2017-08-31T07:19:13.284Z,49.44
2017-08-31T07:20:15.119Z,49.44
2017-08-31T07:21:16.946Z,49.24
2017-08-31T07:22:18.838Z,48.66
2017-08-31T07:23:20.728Z,48.76
2017-08-31T07:24:22.620Z,49.07
2017-08-31T07:25:36.784Z,48.00
2017-08-31T07:26:38.677Z,48.00
2017-08-31T07:27:40.572Z,48.00
2017-08-31T07:28:42.462Z,48.00
2017-08-31T07:29:44.290Z,47.81
2017-08-31T07:30:46.141Z,47.42
2017-08-31T07:31:47.979Z,47.64
2017-08-31T07:32:49.850Z,47.83
2017-08-31T07:33:51.649Z,47.45
2017-08-31T07:35:05.815Z,47.64
2017-08-31T07:36:07.703Z,47.55
2017-08-31T07:37:09.604Z,47.35
2017-08-31T07:38:11.497Z,47.93
2017-08-31T07:39:13.338Z,47.45
2017-08-31T07:40:15.166Z,47.93
2017-08-31T07:41:17.056Z,47.93
2017-08-31T07:42:18.946Z,47.81
2017-08-31T07:43:20.838Z,47.93
2017-08-31T07:44:35.004Z,47.91
2017-08-31T07:45:36.892Z,48.10
2017-08-31T07:46:38.785Z,48.30
2017-08-31T07:47:40.677Z,47.72
2017-08-31T07:48:42.517Z,47.89
2017-08-31T07:49:44.347Z,47.98
2017-08-31T07:50:46.240Z,47.98
2017-08-31T07:51:48.126Z,48.18
2017-08-31T07:52:50.017Z,49.15
2017-08-31T07:54:04.179Z,48.66
2017-08-31T07:55:06.070Z,48.85
2017-08-31T07:56:07.958Z,48.66
2017-08-31T07:57:09.847Z,48.93
2017-08-31T07:58:11.676Z,49.51
2017-08-31T07:59:13.502Z,49.70
2017-08-31T08:00:15.391Z,50.19
2017-08-31T08:01:17.241Z,50.26
2017-08-31T08:02:19.066Z,50.35
2017-08-31T08:03:33.263Z,50.16
2017-08-31T08:04:35.152Z,50.55
2017-08-31T08:05:37.042Z,50.35
2017-08-31T08:06:38.933Z,50.45
2017-08-31T08:07:40.760Z,50.94
2017-08-31T08:08:42.586Z,51.13
2017-08-31T08:09:44.475Z,50.94
2017-08-31T08:10:46.364Z,50.94
2017-08-31T08:11:48.252Z,50.74
2017-08-31T08:13:02.417Z,50.67
2017-08-31T08:14:04.306Z,51.06
2017-08-31T08:15:06.195Z,50.96
2017-08-31T08:16:08.084Z,50.96
2017-08-31T08:17:09.921Z,51.04
2017-08-31T08:18:11.747Z,51.04
2017-08-31T08:19:13.637Z,51.62
2017-08-31T08:20:15.537Z,50.87
2017-08-31T08:21:17.426Z,50.87
2017-08-31T08:22:31.587Z,50.67
2017-08-31T08:23:33.481Z,50.77
2017-08-31T08:24:35.367Z,50.60
2017-08-31T08:25:37.257Z,50.67
2017-08-31T08:26:39.086Z,50.57
2017-08-31T08:27:40.909Z,50.99
2017-08-31T08:28:42.807Z,51.84
2017-08-31T08:29:44.656Z,51.74
2017-08-31T08:30:46.484Z,52.61
2017-08-31T08:32:00.645Z,52.71
2017-08-31T08:33:02.535Z,52.51
2017-08-31T08:34:04.426Z,52.51
2017-08-31T08:35:06.315Z,52.12
2017-08-31T08:36:08.155Z,52.61
2017-08-31T08:37:09.986Z,52.12
2017-08-31T08:38:11.873Z,52.51
2017-08-31T08:39:13.764Z,52.22
2017-08-31T08:40:15.653Z,52.22
2017-08-31T08:41:29.864Z,52.61
2017-08-31T08:42:31.754Z,52.61
2017-08-31T08:43:33.641Z,52.32
2017-08-31T08:44:35.532Z,51.93
2017-08-31T08:45:37.371Z,51.93
2017-08-31T08:46:39.198Z,51.74
2017-08-31T08:47:41.086Z,51.74
2017-08-31T08:48:42.984Z,51.93
2017-08-31T08:49:44.872Z,51.76
2017-08-31T08:50:59.098Z,51.76
2017-08-31T08:52:00.988Z,51.67
2017-08-31T08:53:02.877Z,51.86
2017-08-31T08:54:04.767Z,51.18
2017-08-31T08:55:06.597Z,51.57
2017-08-31T08:56:08.425Z,50.92
2017-08-31T08:57:10.312Z,51.01
2017-08-31T08:58:12.202Z,50.92
2017-08-31T08:59:14.090Z,50.82
2017-08-31T09:00:28.252Z,50.94
2017-08-31T09:01:30.142Z,51.04
2017-08-31T09:02:32.034Z,51.14
2017-08-31T09:03:33.937Z,51.33
2017-08-31T09:04:35.776Z,51.59
2017-08-31T09:05:37.603Z,52.01
2017-08-31T09:06:39.495Z,52.01
2017-08-31T09:07:41.395Z,51.79
2017-08-31T09:08:43.288Z,51.59
2017-08-31T09:09:57.452Z,51.89
2017-08-31T09:10:59.340Z,51.79
2017-08-31T09:12:01.239Z,51.98
2017-08-31T09:13:03.130Z,51.98
2017-08-31T09:14:04.957Z,52.20
2017-08-31T09:15:06.787Z,51.91
2017-08-31T09:16:08.675Z,51.91
2017-08-31T09:17:10.576Z,51.91
2017-08-31T09:18:12.463Z,52.01
2017-08-31T09:19:26.627Z,51.33
2017-08-31T09:20:28.518Z,52.03
2017-08-31T09:21:30.411Z,51.93
2017-08-31T09:22:32.298Z,51.16
2017-08-31T09:23:34.136Z,50.68
2017-08-31T09:24:35.964Z,50.48
2017-08-31T09:25:37.864Z,50.29
2017-08-31T09:26:39.761Z,50.21
2017-08-31T09:27:41.668Z,50.21
2017-08-31T09:28:55.888Z,49.92
2017-08-31T09:29:57.772Z,49.63
2017-08-31T09:30:59.660Z,49.73
2017-08-31T09:32:01.566Z,49.63
2017-08-31T09:33:03.396Z,50.31
2017-08-31T09:34:05.225Z,50.21
2017-08-31T09:35:07.114Z,50.21
2017-08-31T09:36:09.013Z,49.63
2017-08-31T09:37:10.906Z,50.70
2017-08-31T09:38:25.077Z,50.80
2017-08-31T09:39:26.959Z,50.89
2017-08-31T09:40:28.849Z,50.80
2017-08-31T09:41:30.739Z,50.60
2017-08-31T09:42:32.565Z,50.24
2017-08-31T09:43:34.392Z,49.73
2017-08-31T09:44:36.292Z,49.56
2017-08-31T09:45:38.197Z,49.17
2017-08-31T09:46:40.084Z,49.56
2017-08-31T09:47:54.260Z,48.97
2017-08-31T09:48:56.149Z,48.68
2017-08-31T09:49:58.043Z,48.58
2017-08-31T09:50:59.935Z,49.27
2017-08-31T09:52:01.761Z,49.07
2017-08-31T09:53:03.586Z,48.97
2017-08-31T09:54:05.476Z,48.78
2017-08-31T09:55:07.365Z,48.97
2017-08-31T09:56:09.256Z,48.78
2017-08-31T09:57:23.423Z,48.68
2017-08-31T09:58:25.311Z,48.68
2017-08-31T09:59:27.221Z,49.37
2017-08-31T10:00:29.112Z,49.85
2017-08-31T10:01:30.958Z,49.49
2017-08-31T10:02:32.784Z,49.58
2017-08-31T10:03:34.681Z,49.68
2017-08-31T10:04:36.569Z,49.68
2017-08-31T10:05:38.462Z,49.00
2017-08-31T10:06:52.627Z,49.19
2017-08-31T10:07:54.517Z,48.71
2017-08-31T10:08:56.409Z,48.51
2017-08-31T10:09:58.300Z,48.15
2017-08-31T10:11:00.130Z,48.32
2017-08-31T10:12:01.957Z,48.15
2017-08-31T10:13:03.867Z,48.15
2017-08-31T10:14:05.755Z,48.15
2017-08-31T10:15:07.642Z,48.15
2017-08-31T10:16:21.808Z,47.76
2017-08-31T10:17:23.695Z,48.07
2017-08-31T10:18:25.587Z,47.78
2017-08-31T10:19:27.476Z,47.10
2017-08-31T10:20:29.315Z,47.30
2017-08-31T10:21:31.145Z,47.20
2017-08-31T10:22:33.036Z,46.93
2017-08-31T10:23:34.931Z,46.25
2017-08-31T10:24:36.822Z,46.34
2017-08-31T10:25:50.969Z,46.08
2017-08-31T10:26:52.798Z,45.68
2017-08-31T10:27:54.628Z,45.32
2017-08-31T10:28:56.458Z,45.12
2017-08-31T10:29:58.309Z,44.73
2017-08-31T10:31:00.200Z,44.83
2017-08-31T10:32:02.089Z,44.73
2017-08-31T10:33:03.953Z,44.66
2017-08-31T10:34:05.784Z,44.46
2017-08-31T10:35:19.949Z,44.64
2017-08-31T10:36:21.839Z,45.51
2017-08-31T10:37:23.731Z,45.22
2017-08-31T10:38:25.623Z,46.47
2017-08-31T10:39:27.468Z,46.64
2017-08-31T10:40:29.294Z,47.22
2017-08-31T10:41:31.182Z,47.49
2017-08-31T10:42:33.077Z,47.39
2017-08-31T10:43:34.979Z,47.30
2017-08-31T10:44:49.158Z,47.98
2017-08-31T10:45:51.042Z,48.54
2017-08-31T10:46:52.932Z,48.83
2017-08-31T10:47:54.819Z,49.19
2017-08-31T10:48:56.660Z,49.29
2017-08-31T10:49:58.488Z,48.83
2017-08-31T10:51:00.379Z,49.02
2017-08-31T10:52:02.269Z,48.44
2017-08-31T10:53:04.158Z,48.34
2017-08-31T10:54:18.325Z,48.05
2017-08-31T10:55:20.216Z,48.46
2017-08-31T10:56:22.109Z,47.78
2017-08-31T10:57:24.002Z,47.98
2017-08-31T10:58:25.830Z,48.10
2017-08-31T10:59:27.670Z,47.90
2017-08-31T11:00:29.575Z,47.63
2017-08-31T11:01:31.466Z,47.53
2017-08-31T11:02:33.362Z,47.15
2017-08-31T11:03:47.523Z,46.86
2017-08-31T11:04:49.418Z,46.97
2017-08-31T11:05:51.302Z,46.69
2017-08-31T11:06:53.193Z,46.37
2017-08-31T11:07:55.035Z,47.15
2017-08-31T11:08:56.861Z,47.44
2017-08-31T11:09:58.749Z,48.02
2017-08-31T11:11:00.641Z,48.02
2017-08-31T11:12:02.533Z,48.22
2017-08-31T11:13:16.699Z,48.49
2017-08-31T11:14:18.592Z,47.61
2017-08-31T11:15:20.487Z,47.73
2017-08-31T11:16:22.379Z,47.44
2017-08-31T11:17:24.221Z,47.92
2017-08-31T11:18:26.054Z,47.92
2017-08-31T11:19:27.944Z,47.46
2017-08-31T11:20:29.845Z,47.27
2017-08-31T11:21:31.740Z,46.78
2017-08-31T11:22:45.961Z,46.39
2017-08-31T11:23:47.853Z,45.92
2017-08-31T11:24:49.746Z,46.12
2017-08-31T11:25:51.639Z,46.61
2017-08-31T11:26:53.489Z,47.36
2017-08-31T11:27:55.446Z,48.05
2017-08-31T11:28:57.282Z,47.73
2017-08-31T11:29:59.206Z,47.85
2017-08-31T11:31:01.084Z,47.83
2017-08-31T11:32:15.247Z,47.83
2017-08-31T11:33:17.120Z,48.02
2017-08-31T11:34:19.035Z,47.83
2017-08-31T11:35:20.876Z,47.85
2017-08-31T11:36:22.901Z,47.95
2017-08-31T11:37:24.697Z,48.34
2017-08-31T11:38:26.409Z,48.54
2017-08-31T11:39:28.313Z,48.14
2017-08-31T11:40:30.206Z,47.78
2017-08-31T11:41:44.385Z,48.34
2017-08-31T11:42:46.277Z,48.83
2017-08-31T11:43:48.196Z,49.00
2017-08-31T11:44:50.079Z,49.66
2017-08-31T11:45:51.911Z,49.37
2017-08-31T11:46:53.742Z,48.90
2017-08-31T11:47:55.635Z,48.71
2017-08-31T11:48:57.527Z,48.63
2017-08-31T11:49:59.418Z,48.34
2017-08-31T11:51:13.599Z,48.34
2017-08-31T11:52:15.490Z,48.05
2017-08-31T11:53:17.382Z,47.88
2017-08-31T11:54:19.272Z,48.17
2017-08-31T11:55:21.116Z,47.97
2017-08-31T11:56:22.953Z,47.49
2017-08-31T11:57:24.845Z,48.56
2017-08-31T11:58:26.738Z,48.27
2017-08-31T11:59:28.628Z,48.07
2017-08-31T12:00:42.796Z,48.36
2017-08-31T12:01:44.687Z,48.24
2017-08-31T12:02:46.580Z,48.54
2017-08-31T12:03:48.473Z,48.54
2017-08-31T12:04:50.318Z,48.83
2017-08-31T12:05:52.150Z,49.10
2017-08-31T12:06:54.042Z,49.78
2017-08-31T12:07:55.944Z,49.78
2017-08-31T12:08:57.841Z,49.88
2017-08-31T12:10:12.056Z,49.39
2017-08-31T12:11:13.945Z,49.10
2017-08-31T12:12:15.849Z,48.63
2017-08-31T12:13:17.754Z,48.73
2017-08-31T12:14:19.586Z,48.46
2017-08-31T12:15:21.417Z,48.27
2017-08-31T12:16:23.310Z,48.07
2017-08-31T12:17:25.202Z,47.71
2017-08-31T12:18:27.095Z,47.78
2017-08-31T12:19:41.261Z,48.36
2017-08-31T12:20:43.166Z,48.19
2017-08-31T12:21:45.049Z,48.36
2017-08-31T12:22:46.941Z,48.44
2017-08-31T12:23:48.783Z,49.12
2017-08-31T12:24:50.615Z,49.61
2017-08-31T12:25:52.508Z,50.65
2017-08-31T12:26:54.411Z,51.24
2017-08-31T12:27:56.304Z,52.09
2017-08-31T12:29:10.472Z,52.94
2017-08-31T12:30:12.364Z,53.62
2017-08-31T12:31:14.667Z,53.72
2017-08-31T12:32:16.913Z,53.14
2017-08-31T12:33:18.767Z,53.23
2017-08-31T12:34:20.599Z,52.77
2017-08-31T12:35:22.490Z,51.95
2017-08-31T12:36:24.381Z,50.51
2017-08-31T12:37:26.276Z,49.83
2017-08-31T12:38:40.466Z,49.07
2017-08-31T12:39:42.356Z,49.17
2017-08-31T12:40:44.248Z,49.07
2017-08-31T12:41:46.138Z,49.63
2017-08-31T12:42:47.974Z,50.48
2017-08-31T12:43:49.805Z,52.02
2017-08-31T12:44:51.801Z,52.58
2017-08-31T12:45:53.693Z,53.55
2017-08-31T12:46:55.588Z,53.91
2017-08-31T12:48:09.808Z,54.43
2017-08-31T12:49:11.705Z,54.21
2017-08-31T12:50:13.619Z,54.03
2017-08-31T12:51:15.513Z,53.36
2017-08-31T12:52:17.355Z,54.16
2017-08-31T12:53:19.189Z,52.99
2017-08-31T12:54:21.082Z,52.12
2017-08-31T12:55:23.006Z,51.95
2017-08-31T12:56:24.900Z,51.95
2017-08-31T12:57:39.083Z,52.63
2017-08-31T12:58:40.960Z,53.38
2017-08-31T12:59:42.850Z,54.72
2017-08-31T13:00:44.745Z,55.47
2017-08-31T13:01:46.574Z,56.03
2017-08-31T13:02:48.403Z,57.26
2017-08-31T13:03:50.319Z,58.69
2017-08-31T13:04:52.225Z,59.28
2017-08-31T13:05:54.117Z,59.18
2017-08-31T13:07:08.284Z,58.98
2017-08-31T13:08:10.175Z,59.76
2017-08-31T13:09:12.065Z,60.31
2017-08-31T13:10:13.961Z,60.54
2017-08-31T13:11:15.789Z,60.61
2017-08-31T13:12:17.618Z,60.71
2017-08-31T13:13:19.509Z,61.19
2017-08-31T13:14:21.402Z,61.09
2017-08-31T13:15:23.292Z,60.83
2017-08-31T13:16:37.459Z,60.64
2017-08-31T13:17:39.350Z,60.25
2017-08-31T13:18:41.243Z,61.00
2017-08-31T13:19:43.134Z,61.19
2017-08-31T13:20:44.975Z,61.87
2017-08-31T13:21:46.806Z,61.94
2017-08-31T13:22:48.698Z,61.94
2017-08-31T13:23:50.593Z,62.32
2017-08-31T13:24:52.484Z,62.23
2017-08-31T13:26:06.650Z,62.68
2017-08-31T13:27:08.543Z,62.49
2017-08-31T13:28:10.440Z,62.68
2017-08-31T13:29:12.325Z,62.23
2017-08-31T13:30:14.155Z,61.84
2017-08-31T13:31:15.999Z,61.84
2017-08-31T13:32:17.848Z,61.07
2017-08-31T13:33:19.677Z,61.52
2017-08-31T13:34:21.504Z,61.84